Página principal
METAR-TAF:

METAR-TAF

Aeroportos :

Lichinga, Moçambique

latitude: 13-18S, longitude: 035-14E, altura: 1364 m

Observação actual do tempo

O boletim foi feito há 2 horas e 20 minutos, às 11:00 UTC
Vento 12 kt de es-nordeste
Temperatura 25°C
Humidade 41%
Pressão 1022 hPa
Visibilidade 10 km ou mais
Nuvens fragmentadasa uma altura de 2000 ft

METAR: FQLC 241100Z 06012KT 9999 BKN020 25/11 Q1022

Hora: 15:20 (13:20 UTC)

Previsão

O boletim foi feito há 3 horas e 20 minutos, às 10:00 UTC
Previsão válida de 24 às 12 UTC a 25 às 12 UTC
Vento 10 kt de es-nordeste
Visibilidade 10 km ou mais
Poucas nuvensa uma altura de 1500 ft
Nuvens dispersasa uma altura de 2000 ft
Tornando-se
de 24 às 18 UTC a 24 às 20 UTC
Vento 3 kt com direcção variável
Tornando-se
de 25 às 06 UTC a 25 às 08 UTC
Vento 8 kt de nordeste

TAF: FQLC 241000Z 2412/2512 07010KT 9999 FEW015 SCT020 BECMG 2418/2420 VRB03KT BECMG 2506/2508 04008KT TX26/2413Z TN16/2503Z

Observações e previsões do tempo de mais de 4000 aeroportos (mensagens METAR e TAF).

As estações disponíveis são os pontos amarelos e vermelhos sobre o mapa.

Mova o rato sobre o mapa para ver o nome da estação.

Depois clique no ponto para visualizar as observações e previsões meteorológicas.

Para alterar o mapa : clique nos botões verdes com uma cruz preta para aumentar o zoom; no botão verde com uma pitada de zoom; ou nas setas verdes para mapas adjacentes.


METAR-TAF: